sensor_id;sensor_type;location;lat;lon;timestamp;P1;P2;P0
61592;PMS5003;70568;51.378;-1.342;2024-01-15T00:00:37;4;3;
61592;PMS5003;70568;51.378;-1.342;2024-01-15T00:03:03;3;3;
61592;PMS5003;70568;51.378;-1.342;2024-01-15T00:05:31;3;2;
61592;PMS5003;70568;51.378;-1.342;2024-01-15T00:07:57;4;3;
61592;PMS5003;70568;51.378;-1.342;2024-01-15T00:10:24;4;4;
61592;PMS5003;70568;51.378;-1.342;2024-01-15T00:12:51;4;4;
61592;PMS5003;70568;51.378;-1.342;2024-01-15T00:15:17;3;3;
61592;PMS5003;70568;51.378;-1.342;2024-01-15T00:17:45;2;2;
61592;PMS5003;70568;51.378;-1.342;2024-01-15T00:20:11;3;3;
61592;PMS5003;70568;51.378;-1.342;2024-01-15T00:22:38;3;2;
61592;PMS5003;70568;51.378;-1.342;2024-01-15T00:25:06;3;3;
61592;PMS5003;70568;51.378;-1.342;2024-01-15T00:27:32;4;3;
61592;PMS5003;70568;51.378;-1.342;2024-01-15T00:29:59;3;2;
61592;PMS5003;70568;51.378;-1.342;2024-01-15T00:32:25;3;3;
61592;PMS5003;70568;51.378;-1.342;2024-01-15T00:34:52;3;2;
61592;PMS5003;70568;51.378;-1.342;2024-01-15T00:37:19;2;2;
61592;PMS5003;70568;51.378;-1.342;2024-01-15T00:39:45;2;2;
61592;PMS5003;70568;51.378;-1.342;2024-01-15T00:42:12;2;2;
61592;PMS5003;70568;51.378;-1.342;2024-01-15T00:44:39;3;2;
61592;PMS5003;70568;51.378;-1.342;2024-01-15T00:47:05;2;2;
61592;PMS5003;70568;51.378;-1.342;2024-01-15T00:49:32;3;3;
61592;PMS5003;70568;51.378;-1.342;2024-01-15T00:51:59;3;3;
61592;PMS5003;70568;51.378;-1.342;2024-01-15T00:54:27;1;1;
61592;PMS5003;70568;51.378;-1.342;2024-01-15T00:56:54;1;1;
61592;PMS5003;70568;51.378;-1.342;2024-01-15T00:59:21;2;2;
61592;PMS5003;70568;51.378;-1.342;2024-01-15T01:01:48;3;2;
61592;PMS5003;70568;51.378;-1.342;2024-01-15T01:04:14;1;1;
61592;PMS5003;70568;51.378;-1.342;2024-01-15T01:06:41;1;1;
61592;PMS5003;70568;51.378;-1.342;2024-01-15T01:09:08;2;2;
61592;PMS5003;70568;51.378;-1.342;2024-01-15T01:11:35;1;1;
61592;PMS5003;70568;51.378;-1.342;2024-01-15T01:14:02;4;4;
61592;PMS5003;70568;51.378;-1.342;2024-01-15T01:16:28;3;2;
61592;PMS5003;70568;51.378;-1.342;2024-01-15T01:18:55;2;2;
61592;PMS5003;70568;51.378;-1.342;2024-01-15T01:21:22;3;3;
61592;PMS5003;70568;51.378;-1.342;2024-01-15T01:23:48;1;1;
61592;PMS5003;70568;51.378;-1.342;2024-01-15T01:26:15;2;2;
61592;PMS5003;70568;51.378;-1.342;2024-01-15T01:28:43;2;2;
61592;PMS5003;70568;51.378;-1.342;2024-01-15T01:31:10;1;1;
61592;PMS5003;70568;51.378;-1.342;2024-01-15T01:33:37;2;2;
61592;PMS5003;70568;51.378;-1.342;2024-01-15T01:36:07;2;2;
61592;PMS5003;70568;51.378;-1.342;2024-01-15T01:38:33;3;2;
61592;PMS5003;70568;51.378;-1.342;2024-01-15T01:41:00;2;2;
61592;PMS5003;70568;51.378;-1.342;2024-01-15T01:43:27;1;1;
61592;PMS5003;70568;51.378;-1.342;2024-01-15T01:45:54;2;1;
61592;PMS5003;70568;51.378;-1.342;2024-01-15T01:48:23;2;1;
61592;PMS5003;70568;51.378;-1.342;2024-01-15T01:50:51;2;2;
61592;PMS5003;70568;51.378;-1.342;2024-01-15T01:53:18;1;1;
61592;PMS5003;70568;51.378;-1.342;2024-01-15T01:55:45;2;2;
61592;PMS5003;70568;51.378;-1.342;2024-01-15T01:58:13;2;2;
61592;PMS5003;70568;51.378;-1.342;2024-01-15T02:00:41;1;1;
61592;PMS5003;70568;51.378;-1.342;2024-01-15T02:03:09;2;2;
61592;PMS5003;70568;51.378;-1.342;2024-01-15T02:05:36;1;1;
61592;PMS5003;70568;51.378;-1.342;2024-01-15T02:08:04;1;1;
61592;PMS5003;70568;51.378;-1.342;2024-01-15T02:10:32;1;1;
61592;PMS5003;70568;51.378;-1.342;2024-01-15T02:12:58;1;1;
61592;PMS5003;70568;51.378;-1.342;2024-01-15T02:15:25;1;1;
61592;PMS5003;70568;51.378;-1.342;2024-01-15T02:17:59;2;2;
61592;PMS5003;70568;51.378;-1.342;2024-01-15T02:20:27;3;2;
61592;PMS5003;70568;51.378;-1.342;2024-01-15T02:22:54;1;1;
61592;PMS5003;70568;51.378;-1.342;2024-01-15T02:25:27;1;1;
61592;PMS5003;70568;51.378;-1.342;2024-01-15T02:27:54;3;3;
61592;PMS5003;70568;51.378;-1.342;2024-01-15T02:30:22;3;2;
61592;PMS5003;70568;51.378;-1.342;2024-01-15T02:32:50;2;2;
61592;PMS5003;70568;51.378;-1.342;2024-01-15T02:35:17;1;1;
61592;PMS5003;70568;51.378;-1.342;2024-01-15T02:37:44;3;2;
61592;PMS5003;70568;51.378;-1.342;2024-01-15T02:40:11;2;2;
61592;PMS5003;70568;51.378;-1.342;2024-01-15T02:42:37;4;2;
61592;PMS5003;70568;51.378;-1.342;2024-01-15T02:45:04;3;2;
61592;PMS5003;70568;51.378;-1.342;2024-01-15T02:47:32;2;2;
61592;PMS5003;70568;51.378;-1.342;2024-01-15T02:49:58;3;2;
61592;PMS5003;70568;51.378;-1.342;2024-01-15T02:52:25;3;3;
61592;PMS5003;70568;51.378;-1.342;2024-01-15T02:54:51;3;3;
61592;PMS5003;70568;51.378;-1.342;2024-01-15T02:57:18;2;2;
61592;PMS5003;70568;51.378;-1.342;2024-01-15T02:59:45;3;3;
61592;PMS5003;70568;51.378;-1.342;2024-01-15T03:02:11;2;2;
61592;PMS5003;70568;51.378;-1.342;2024-01-15T03:04:42;2;2;
61592;PMS5003;70568;51.378;-1.342;2024-01-15T03:07:09;2;2;
61592;PMS5003;70568;51.378;-1.342;2024-01-15T03:09:36;2;2;
61592;PMS5003;70568;51.378;-1.342;2024-01-15T03:12:03;3;3;
61592;PMS5003;70568;51.378;-1.342;2024-01-15T03:14:30;1;1;
61592;PMS5003;70568;51.378;-1.342;2024-01-15T03:16:57;3;2;
61592;PMS5003;70568;51.378;-1.342;2024-01-15T03:19:23;2;2;
61592;PMS5003;70568;51.378;-1.342;2024-01-15T03:21:50;1;1;
61592;PMS5003;70568;51.378;-1.342;2024-01-15T03:24:17;2;2;
61592;PMS5003;70568;51.378;-1.342;2024-01-15T03:26:43;3;2;
61592;PMS5003;70568;51.378;-1.342;2024-01-15T03:29:10;1;1;
61592;PMS5003;70568;51.378;-1.342;2024-01-15T03:31:36;3;3;
61592;PMS5003;70568;51.378;-1.342;2024-01-15T03:34:03;2;2;
61592;PMS5003;70568;51.378;-1.342;2024-01-15T03:36:30;4;3;
61592;PMS5003;70568;51.378;-1.342;2024-01-15T03:38:56;3;2;
61592;PMS5003;70568;51.378;-1.342;2024-01-15T03:41:23;3;3;
61592;PMS5003;70568;51.378;-1.342;2024-01-15T03:43:50;3;2;
61592;PMS5003;70568;51.378;-1.342;2024-01-15T03:46:16;3;2;
61592;PMS5003;70568;51.378;-1.342;2024-01-15T03:48:43;3;3;
61592;PMS5003;70568;51.378;-1.342;2024-01-15T03:51:10;3;3;
61592;PMS5003;70568;51.378;-1.342;2024-01-15T03:53:37;3;3;
61592;PMS5003;70568;51.378;-1.342;2024-01-15T03:56:05;1;1;
61592;PMS5003;70568;51.378;-1.342;2024-01-15T03:58:31;2;2;
61592;PMS5003;70568;51.378;-1.342;2024-01-15T04:00:58;4;4;
61592;PMS5003;70568;51.378;-1.342;2024-01-15T04:03:24;3;3;
61592;PMS5003;70568;51.378;-1.342;2024-01-15T04:05:51;3;2;
61592;PMS5003;70568;51.378;-1.342;2024-01-15T04:08:18;2;2;
61592;PMS5003;70568;51.378;-1.342;2024-01-15T04:10:45;2;2;
61592;PMS5003;70568;51.378;-1.342;2024-01-15T04:13:13;4;4;
61592;PMS5003;70568;51.378;-1.342;2024-01-15T04:15:40;4;4;
61592;PMS5003;70568;51.378;-1.342;2024-01-15T04:18:08;3;2;
61592;PMS5003;70568;51.378;-1.342;2024-01-15T04:20:34;2;2;
61592;PMS5003;70568;51.378;-1.342;2024-01-15T04:23:01;1;1;
61592;PMS5003;70568;51.378;-1.342;2024-01-15T04:25:27;2;2;
61592;PMS5003;70568;51.378;-1.342;2024-01-15T04:27:54;3;3;
61592;PMS5003;70568;51.378;-1.342;2024-01-15T04:30:21;3;2;
61592;PMS5003;70568;51.378;-1.342;2024-01-15T04:32:47;1;1;
61592;PMS5003;70568;51.378;-1.342;2024-01-15T04:35:14;2;2;
61592;PMS5003;70568;51.378;-1.342;2024-01-15T04:37:41;3;2;
61592;PMS5003;70568;51.378;-1.342;2024-01-15T04:40:09;2;2;
61592;PMS5003;70568;51.378;-1.342;2024-01-15T04:42:37;3;2;
61592;PMS5003;70568;51.378;-1.342;2024-01-15T04:45:04;2;2;
61592;PMS5003;70568;51.378;-1.342;2024-01-15T04:47:31;4;3;
61592;PMS5003;70568;51.378;-1.342;2024-01-15T04:49:57;2;2;
61592;PMS5003;70568;51.378;-1.342;2024-01-15T04:52:24;2;2;
61592;PMS5003;70568;51.378;-1.342;2024-01-15T04:54:51;3;3;
61592;PMS5003;70568;51.378;-1.342;2024-01-15T04:57:17;3;3;
61592;PMS5003;70568;51.378;-1.342;2024-01-15T04:59:44;3;3;
61592;PMS5003;70568;51.378;-1.342;2024-01-15T05:02:11;2;2;
61592;PMS5003;70568;51.378;-1.342;2024-01-15T05:04:37;4;3;
61592;PMS5003;70568;51.378;-1.342;2024-01-15T05:07:04;2;2;
61592;PMS5003;70568;51.378;-1.342;2024-01-15T05:09:31;3;2;
61592;PMS5003;70568;51.378;-1.342;2024-01-15T05:11:58;3;3;
61592;PMS5003;70568;51.378;-1.342;2024-01-15T05:14:25;2;2;
61592;PMS5003;70568;51.378;-1.342;2024-01-15T05:16:52;3;3;
61592;PMS5003;70568;51.378;-1.342;2024-01-15T05:19:19;3;3;
61592;PMS5003;70568;51.378;-1.342;2024-01-15T05:21:45;3;3;
61592;PMS5003;70568;51.378;-1.342;2024-01-15T05:24:12;3;3;
61592;PMS5003;70568;51.378;-1.342;2024-01-15T05:26:39;3;3;
61592;PMS5003;70568;51.378;-1.342;2024-01-15T05:29:05;4;3;
61592;PMS5003;70568;51.378;-1.342;2024-01-15T05:31:32;7;7;
61592;PMS5003;70568;51.378;-1.342;2024-01-15T05:33:59;7;7;
61592;PMS5003;70568;51.378;-1.342;2024-01-15T05:36:26;13;11;
61592;PMS5003;70568;51.378;-1.342;2024-01-15T05:38:52;7;7;
61592;PMS5003;70568;51.378;-1.342;2024-01-15T05:41:19;7;7;
61592;PMS5003;70568;51.378;-1.342;2024-01-15T05:43:46;5;5;
61592;PMS5003;70568;51.378;-1.342;2024-01-15T05:46:13;6;6;
61592;PMS5003;70568;51.378;-1.342;2024-01-15T05:48:40;4;4;
61592;PMS5003;70568;51.378;-1.342;2024-01-15T05:51:07;3;3;
61592;PMS5003;70568;51.378;-1.342;2024-01-15T05:53:34;4;4;
61592;PMS5003;70568;51.378;-1.342;2024-01-15T05:56:01;3;3;
61592;PMS5003;70568;51.378;-1.342;2024-01-15T05:58:27;2;2;
61592;PMS5003;70568;51.378;-1.342;2024-01-15T06:00:54;3;3;
61592;PMS5003;70568;51.378;-1.342;2024-01-15T06:03:21;3;3;
61592;PMS5003;70568;51.378;-1.342;2024-01-15T06:05:47;3;3;
61592;PMS5003;70568;51.378;-1.342;2024-01-15T06:08:14;2;2;
61592;PMS5003;70568;51.378;-1.342;2024-01-15T06:10:42;4;3;
61592;PMS5003;70568;51.378;-1.342;2024-01-15T06:13:09;6;4;
61592;PMS5003;70568;51.378;-1.342;2024-01-15T06:15:36;4;3;
61592;PMS5003;70568;51.378;-1.342;2024-01-15T06:18:03;6;4;
61592;PMS5003;70568;51.378;-1.342;2024-01-15T06:20:30;2;2;
61592;PMS5003;70568;51.378;-1.342;2024-01-15T06:22:56;4;3;
61592;PMS5003;70568;51.378;-1.342;2024-01-15T06:25:23;3;3;
61592;PMS5003;70568;51.378;-1.342;2024-01-15T06:27:50;4;4;
61592;PMS5003;70568;51.378;-1.342;2024-01-15T06:30:16;4;4;
61592;PMS5003;70568;51.378;-1.342;2024-01-15T06:32:43;4;4;
61592;PMS5003;70568;51.378;-1.342;2024-01-15T06:35:10;3;3;
61592;PMS5003;70568;51.378;-1.342;2024-01-15T06:37:36;4;4;
61592;PMS5003;70568;51.378;-1.342;2024-01-15T06:40:03;4;3;
61592;PMS5003;70568;51.378;-1.342;2024-01-15T06:42:30;2;2;
61592;PMS5003;70568;51.378;-1.342;2024-01-15T06:44:57;4;4;
61592;PMS5003;70568;51.378;-1.342;2024-01-15T06:47:23;4;3;
61592;PMS5003;70568;51.378;-1.342;2024-01-15T06:49:50;3;3;
61592;PMS5003;70568;51.378;-1.342;2024-01-15T06:52:17;3;3;
61592;PMS5003;70568;51.378;-1.342;2024-01-15T06:54:43;4;4;
61592;PMS5003;70568;51.378;-1.342;2024-01-15T06:57:10;4;4;
61592;PMS5003;70568;51.378;-1.342;2024-01-15T06:59:37;4;4;
61592;PMS5003;70568;51.378;-1.342;2024-01-15T07:02:04;3;3;
61592;PMS5003;70568;51.378;-1.342;2024-01-15T07:04:30;6;6;
61592;PMS5003;70568;51.378;-1.342;2024-01-15T07:06:57;6;4;
61592;PMS5003;70568;51.378;-1.342;2024-01-15T07:09:23;6;4;
61592;PMS5003;70568;51.378;-1.342;2024-01-15T07:11:50;3;3;
61592;PMS5003;70568;51.378;-1.342;2024-01-15T07:14:17;3;3;
61592;PMS5003;70568;51.378;-1.342;2024-01-15T07:16:44;7;6;
61592;PMS5003;70568;51.378;-1.342;2024-01-15T07:19:11;6;6;
61592;PMS5003;70568;51.378;-1.342;2024-01-15T07:21:38;6;3;
61592;PMS5003;70568;51.378;-1.342;2024-01-15T07:24:04;6;4;
61592;PMS5003;70568;51.378;-1.342;2024-01-15T07:26:31;4;4;
61592;PMS5003;70568;51.378;-1.342;2024-01-15T07:28:58;6;4;
61592;PMS5003;70568;51.378;-1.342;2024-01-15T07:31:24;4;3;
61592;PMS5003;70568;51.378;-1.342;2024-01-15T07:33:51;4;4;
61592;PMS5003;70568;51.378;-1.342;2024-01-15T07:36:18;6;4;
61592;PMS5003;70568;51.378;-1.342;2024-01-15T07:38:45;4;4;
61592;PMS5003;70568;51.378;-1.342;2024-01-15T07:41:13;2;2;
61592;PMS5003;70568;51.378;-1.342;2024-01-15T07:43:40;3;3;
61592;PMS5003;70568;51.378;-1.342;2024-01-15T07:46:07;4;4;
61592;PMS5003;70568;51.378;-1.342;2024-01-15T07:48:34;3;3;
61592;PMS5003;70568;51.378;-1.342;2024-01-15T07:51:01;2;2;
61592;PMS5003;70568;51.378;-1.342;2024-01-15T07:53:27;3;3;
61592;PMS5003;70568;51.378;-1.342;2024-01-15T07:55:54;6;4;
61592;PMS5003;70568;51.378;-1.342;2024-01-15T07:58:21;6;3;
61592;PMS5003;70568;51.378;-1.342;2024-01-15T08:00:47;4;4;
61592;PMS5003;70568;51.378;-1.342;2024-01-15T08:03:14;4;4;
61592;PMS5003;70568;51.378;-1.342;2024-01-15T08:05:47;6;4;
61592;PMS5003;70568;51.378;-1.342;2024-01-15T08:08:19;4;3;
61592;PMS5003;70568;51.378;-1.342;2024-01-15T08:10:46;3;3;
61592;PMS5003;70568;51.378;-1.342;2024-01-15T08:13:12;7;7;
61592;PMS5003;70568;51.378;-1.342;2024-01-15T08:15:39;4;4;
61592;PMS5003;70568;51.378;-1.342;2024-01-15T08:18:05;11;11;
61592;PMS5003;70568;51.378;-1.342;2024-01-15T08:20:32;5;3;
61592;PMS5003;70568;51.378;-1.342;2024-01-15T08:22:59;5;5;
61592;PMS5003;70568;51.378;-1.342;2024-01-15T08:25:26;6;3;
61592;PMS5003;70568;51.378;-1.342;2024-01-15T08:27:52;3;3;
61592;PMS5003;70568;51.378;-1.342;2024-01-15T08:30:19;3;3;
61592;PMS5003;70568;51.378;-1.342;2024-01-15T08:32:46;6;5;
61592;PMS5003;70568;51.378;-1.342;2024-01-15T08:35:14;2;2;
61592;PMS5003;70568;51.378;-1.342;2024-01-15T08:37:41;5;5;
61592;PMS5003;70568;51.378;-1.342;2024-01-15T08:40:09;3;3;
61592;PMS5003;70568;51.378;-1.342;2024-01-15T08:42:36;2;2;
61592;PMS5003;70568;51.378;-1.342;2024-01-15T08:45:03;3;3;
61592;PMS5003;70568;51.378;-1.342;2024-01-15T08:47:30;3;2;
61592;PMS5003;70568;51.378;-1.342;2024-01-15T08:49:57;3;2;
61592;PMS5003;70568;51.378;-1.342;2024-01-15T08:52:24;2;2;
61592;PMS5003;70568;51.378;-1.342;2024-01-15T08:54:50;2;2;
61592;PMS5003;70568;51.378;-1.342;2024-01-15T08:57:17;2;2;
61592;PMS5003;70568;51.378;-1.342;2024-01-15T08:59:44;2;2;
61592;PMS5003;70568;51.378;-1.342;2024-01-15T09:02:10;2;2;
61592;PMS5003;70568;51.378;-1.342;2024-01-15T09:04:37;3;3;
61592;PMS5003;70568;51.378;-1.342;2024-01-15T09:07:04;2;2;
61592;PMS5003;70568;51.378;-1.342;2024-01-15T09:09:30;1;1;
61592;PMS5003;70568;51.378;-1.342;2024-01-15T09:11:57;2;1;
61592;PMS5003;70568;51.378;-1.342;2024-01-15T09:14:24;4;3;
61592;PMS5003;70568;51.378;-1.342;2024-01-15T09:16:51;2;2;
61592;PMS5003;70568;51.378;-1.342;2024-01-15T09:19:17;2;2;
61592;PMS5003;70568;51.378;-1.342;2024-01-15T09:21:44;7;6;
61592;PMS5003;70568;51.378;-1.342;2024-01-15T09:24:10;4;4;
61592;PMS5003;70568;51.378;-1.342;2024-01-15T09:26:37;12;11;
61592;PMS5003;70568;51.378;-1.342;2024-01-15T09:29:04;9;8;
61592;PMS5003;70568;51.378;-1.342;2024-01-15T09:31:30;9;7;
61592;PMS5003;70568;51.378;-1.342;2024-01-15T09:33:57;4;4;
61592;PMS5003;70568;51.378;-1.342;2024-01-15T09:36:24;3;2;
61592;PMS5003;70568;51.378;-1.342;2024-01-15T09:38:50;4;2;
61592;PMS5003;70568;51.378;-1.342;2024-01-15T09:41:17;2;2;
61592;PMS5003;70568;51.378;-1.342;2024-01-15T09:43:44;4;3;
61592;PMS5003;70568;51.378;-1.342;2024-01-15T09:46:12;12;12;
61592;PMS5003;70568;51.378;-1.342;2024-01-15T09:48:40;19;17;
61592;PMS5003;70568;51.378;-1.342;2024-01-15T09:51:07;17;15;
61592;PMS5003;70568;51.378;-1.342;2024-01-15T09:53:34;10;10;
61592;PMS5003;70568;51.378;-1.342;2024-01-15T09:56:03;7;6;
61592;PMS5003;70568;51.378;-1.342;2024-01-15T09:58:31;4;3;
61592;PMS5003;70568;51.378;-1.342;2024-01-15T10:00:59;4;4;
61592;PMS5003;70568;51.378;-1.342;2024-01-15T10:03:27;2;2;
61592;PMS5003;70568;51.378;-1.342;2024-01-15T10:05:54;3;3;
61592;PMS5003;70568;51.378;-1.342;2024-01-15T10:08:22;3;3;
61592;PMS5003;70568;51.378;-1.342;2024-01-15T10:10:49;2;2;
61592;PMS5003;70568;51.378;-1.342;2024-01-15T10:13:16;2;2;
61592;PMS5003;70568;51.378;-1.342;2024-01-15T10:15:45;2;2;
61592;PMS5003;70568;51.378;-1.342;2024-01-15T10:18:12;2;2;
61592;PMS5003;70568;51.378;-1.342;2024-01-15T10:20:39;2;2;
61592;PMS5003;70568;51.378;-1.342;2024-01-15T10:23:06;4;3;
61592;PMS5003;70568;51.378;-1.342;2024-01-15T10:25:35;2;2;
61592;PMS5003;70568;51.378;-1.342;2024-01-15T10:28:03;2;2;
61592;PMS5003;70568;51.378;-1.342;2024-01-15T10:30:31;3;2;
61592;PMS5003;70568;51.378;-1.342;2024-01-15T10:32:59;3;3;
61592;PMS5003;70568;51.378;-1.342;2024-01-15T10:35:27;9;8;
61592;PMS5003;70568;51.378;-1.342;2024-01-15T10:37:55;6;6;
61592;PMS5003;70568;51.378;-1.342;2024-01-15T10:40:23;7;6;
61592;PMS5003;70568;51.378;-1.342;2024-01-15T10:42:50;3;3;
61592;PMS5003;70568;51.378;-1.342;2024-01-15T10:45:17;2;2;
61592;PMS5003;70568;51.378;-1.342;2024-01-15T10:47:44;2;1;
61592;PMS5003;70568;51.378;-1.342;2024-01-15T10:50:12;2;2;
61592;PMS5003;70568;51.378;-1.342;2024-01-15T10:52:39;3;3;
61592;PMS5003;70568;51.378;-1.342;2024-01-15T10:55:07;4;3;
61592;PMS5003;70568;51.378;-1.342;2024-01-15T10:57:35;1;1;
61592;PMS5003;70568;51.378;-1.342;2024-01-15T11:00:03;2;2;
61592;PMS5003;70568;51.378;-1.342;2024-01-15T11:02:31;2;2;
61592;PMS5003;70568;51.378;-1.342;2024-01-15T11:04:59;4;3;
61592;PMS5003;70568;51.378;-1.342;2024-01-15T11:07:26;3;3;
61592;PMS5003;70568;51.378;-1.342;2024-01-15T11:09:53;2;2;
61592;PMS5003;70568;51.378;-1.342;2024-01-15T11:12:20;2;1;
61592;PMS5003;70568;51.378;-1.342;2024-01-15T11:14:47;2;2;
61592;PMS5003;70568;51.378;-1.342;2024-01-15T11:17:14;1;1;
61592;PMS5003;70568;51.378;-1.342;2024-01-15T11:19:43;2;1;
61592;PMS5003;70568;51.378;-1.342;2024-01-15T11:25:19;0;0;
61592;PMS5003;70568;51.378;-1.342;2024-01-15T11:27:46;2;2;
61592;PMS5003;70568;51.378;-1.342;2024-01-15T11:30:14;2;2;
61592;PMS5003;70568;51.378;-1.342;2024-01-15T11:32:41;2;2;
61592;PMS5003;70568;51.378;-1.342;2024-01-15T11:35:09;2;2;
61592;PMS5003;70568;51.378;-1.342;2024-01-15T11:37:58;2;2;
61592;PMS5003;70568;51.378;-1.342;2024-01-15T11:40:41;3;3;
61592;PMS5003;70568;51.378;-1.342;2024-01-15T11:43:08;0;0;
61592;PMS5003;70568;51.378;-1.342;2024-01-15T11:45:34;1;1;
61592;PMS5003;70568;51.378;-1.342;2024-01-15T11:48:10;2;2;
61592;PMS5003;70568;51.378;-1.342;2024-01-15T11:50:40;2;1;
61592;PMS5003;70568;51.378;-1.342;2024-01-15T11:53:10;1;1;
61592;PMS5003;70568;51.378;-1.342;2024-01-15T11:55:44;2;2;
61592;PMS5003;70568;51.378;-1.342;2024-01-15T11:58:11;3;2;
61592;PMS5003;70568;51.378;-1.342;2024-01-15T12:00:39;2;2;
61592;PMS5003;70568;51.378;-1.342;2024-01-15T12:03:06;1;1;
61592;PMS5003;70568;51.378;-1.342;2024-01-15T12:05:33;2;2;
61592;PMS5003;70568;51.378;-1.342;2024-01-15T12:07:59;2;2;
61592;PMS5003;70568;51.378;-1.342;2024-01-15T12:10:26;2;2;
61592;PMS5003;70568;51.378;-1.342;2024-01-15T12:12:54;2;1;
61592;PMS5003;70568;51.378;-1.342;2024-01-15T12:15:24;3;1;
61592;PMS5003;70568;51.378;-1.342;2024-01-15T12:17:52;1;1;
61592;PMS5003;70568;51.378;-1.342;2024-01-15T12:20:21;1;1;
61592;PMS5003;70568;51.378;-1.342;2024-01-15T12:22:47;1;1;
61592;PMS5003;70568;51.378;-1.342;2024-01-15T12:25:14;1;1;
61592;PMS5003;70568;51.378;-1.342;2024-01-15T12:27:42;0;0;
61592;PMS5003;70568;51.378;-1.342;2024-01-15T12:30:10;1;1;
61592;PMS5003;70568;51.378;-1.342;2024-01-15T12:32:39;1;1;
61592;PMS5003;70568;51.378;-1.342;2024-01-15T12:35:06;2;1;
61592;PMS5003;70568;51.378;-1.342;2024-01-15T12:37:34;3;3;
61592;PMS5003;70568;51.378;-1.342;2024-01-15T12:40:01;2;2;
61592;PMS5003;70568;51.378;-1.342;2024-01-15T12:42:28;3;3;
61592;PMS5003;70568;51.378;-1.342;2024-01-15T12:44:55;2;1;
61592;PMS5003;70568;51.378;-1.342;2024-01-15T12:47:23;3;2;
61592;PMS5003;70568;51.378;-1.342;2024-01-15T12:49:51;3;3;
61592;PMS5003;70568;51.378;-1.342;2024-01-15T12:52:18;5;4;
61592;PMS5003;70568;51.378;-1.342;2024-01-15T12:54:45;4;3;
61592;PMS5003;70568;51.378;-1.342;2024-01-15T12:57:12;4;4;
61592;PMS5003;70568;51.378;-1.342;2024-01-15T12:59:38;2;2;
61592;PMS5003;70568;51.378;-1.342;2024-01-15T13:02:05;3;3;
61592;PMS5003;70568;51.378;-1.342;2024-01-15T13:04:32;3;3;
61592;PMS5003;70568;51.378;-1.342;2024-01-15T13:06:59;8;5;
61592;PMS5003;70568;51.378;-1.342;2024-01-15T13:09:26;4;4;
61592;PMS5003;70568;51.378;-1.342;2024-01-15T13:11:53;3;3;
61592;PMS5003;70568;51.378;-1.342;2024-01-15T13:14:19;4;3;
61592;PMS5003;70568;51.378;-1.342;2024-01-15T13:16:46;1;1;
61592;PMS5003;70568;51.378;-1.342;2024-01-15T13:19:13;3;2;
61592;PMS5003;70568;51.378;-1.342;2024-01-15T13:21:39;2;2;
61592;PMS5003;70568;51.378;-1.342;2024-01-15T13:24:06;3;2;
61592;PMS5003;70568;51.378;-1.342;2024-01-15T13:26:34;4;3;
61592;PMS5003;70568;51.378;-1.342;2024-01-15T13:29:01;2;2;
61592;PMS5003;70568;51.378;-1.342;2024-01-15T13:31:28;2;2;
61592;PMS5003;70568;51.378;-1.342;2024-01-15T13:33:54;4;4;
61592;PMS5003;70568;51.378;-1.342;2024-01-15T13:36:21;3;2;
61592;PMS5003;70568;51.378;-1.342;2024-01-15T13:38:48;3;2;
61592;PMS5003;70568;51.378;-1.342;2024-01-15T13:41:14;4;4;
61592;PMS5003;70568;51.378;-1.342;2024-01-15T13:43:41;3;3;
61592;PMS5003;70568;51.378;-1.342;2024-01-15T13:46:08;3;3;
61592;PMS5003;70568;51.378;-1.342;2024-01-15T13:48:35;3;3;
61592;PMS5003;70568;51.378;-1.342;2024-01-15T13:51:02;3;3;
61592;PMS5003;70568;51.378;-1.342;2024-01-15T13:53:29;3;3;
61592;PMS5003;70568;51.378;-1.342;2024-01-15T13:55:56;3;2;
61592;PMS5003;70568;51.378;-1.342;2024-01-15T13:58:22;4;3;
61592;PMS5003;70568;51.378;-1.342;2024-01-15T14:00:49;2;1;
61592;PMS5003;70568;51.378;-1.342;2024-01-15T14:03:15;1;0;
61592;PMS5003;70568;51.378;-1.342;2024-01-15T14:05:43;2;2;
61592;PMS5003;70568;51.378;-1.342;2024-01-15T14:08:10;1;1;
61592;PMS5003;70568;51.378;-1.342;2024-01-15T14:10:36;3;2;
61592;PMS5003;70568;51.378;-1.342;2024-01-15T14:13:03;3;3;
61592;PMS5003;70568;51.378;-1.342;2024-01-15T14:15:30;4;4;
61592;PMS5003;70568;51.378;-1.342;2024-01-15T14:17:56;4;4;
61592;PMS5003;70568;51.378;-1.342;2024-01-15T14:20:23;4;4;
61592;PMS5003;70568;51.378;-1.342;2024-01-15T14:22:49;3;2;
61592;PMS5003;70568;51.378;-1.342;2024-01-15T14:25:17;5;4;
61592;PMS5003;70568;51.378;-1.342;2024-01-15T14:27:44;3;3;
61592;PMS5003;70568;51.378;-1.342;2024-01-15T14:30:11;3;3;
61592;PMS5003;70568;51.378;-1.342;2024-01-15T14:32:39;3;3;
61592;PMS5003;70568;51.378;-1.342;2024-01-15T14:35:06;4;3;
61592;PMS5003;70568;51.378;-1.342;2024-01-15T14:37:34;1;1;
61592;PMS5003;70568;51.378;-1.342;2024-01-15T14:40:00;2;2;
61592;PMS5003;70568;51.378;-1.342;2024-01-15T14:42:27;3;3;
61592;PMS5003;70568;51.378;-1.342;2024-01-15T14:44:53;2;2;
61592;PMS5003;70568;51.378;-1.342;2024-01-15T14:47:20;2;2;
61592;PMS5003;70568;51.378;-1.342;2024-01-15T14:49:47;2;2;
61592;PMS5003;70568;51.378;-1.342;2024-01-15T14:52:13;2;2;
61592;PMS5003;70568;51.378;-1.342;2024-01-15T14:54:40;4;3;
61592;PMS5003;70568;51.378;-1.342;2024-01-15T14:57:07;5;3;
61592;PMS5003;70568;51.378;-1.342;2024-01-15T14:59:34;6;5;
61592;PMS5003;70568;51.378;-1.342;2024-01-15T15:02:01;1;1;
61592;PMS5003;70568;51.378;-1.342;2024-01-15T15:04:27;2;2;
61592;PMS5003;70568;51.378;-1.342;2024-01-15T15:06:54;1;1;
61592;PMS5003;70568;51.378;-1.342;2024-01-15T15:09:21;4;1;
61592;PMS5003;70568;51.378;-1.342;2024-01-15T15:11:47;2;2;
61592;PMS5003;70568;51.378;-1.342;2024-01-15T15:14:14;1;1;
61592;PMS5003;70568;51.378;-1.342;2024-01-15T15:16:41;1;1;
61592;PMS5003;70568;51.378;-1.342;2024-01-15T15:19:08;2;0;
61592;PMS5003;70568;51.378;-1.342;2024-01-15T15:21:35;2;2;
61592;PMS5003;70568;51.378;-1.342;2024-01-15T15:24:01;0;0;
61592;PMS5003;70568;51.378;-1.342;2024-01-15T15:26:28;2;2;
61592;PMS5003;70568;51.378;-1.342;2024-01-15T15:28:55;4;4;
61592;PMS5003;70568;51.378;-1.342;2024-01-15T15:31:22;2;1;
61592;PMS5003;70568;51.378;-1.342;2024-01-15T15:33:49;1;1;
61592;PMS5003;70568;51.378;-1.342;2024-01-15T15:36:15;0;0;
61592;PMS5003;70568;51.378;-1.342;2024-01-15T15:38:42;2;1;
61592;PMS5003;70568;51.378;-1.342;2024-01-15T15:41:10;2;1;
61592;PMS5003;70568;51.378;-1.342;2024-01-15T15:43:37;2;2;
61592;PMS5003;70568;51.378;-1.342;2024-01-15T15:46:03;3;3;
61592;PMS5003;70568;51.378;-1.342;2024-01-15T15:48:30;3;2;
61592;PMS5003;70568;51.378;-1.342;2024-01-15T15:50:57;2;2;
61592;PMS5003;70568;51.378;-1.342;2024-01-15T15:53:24;4;3;
61592;PMS5003;70568;51.378;-1.342;2024-01-15T15:55:51;1;1;
61592;PMS5003;70568;51.378;-1.342;2024-01-15T15:58:17;1;1;
61592;PMS5003;70568;51.378;-1.342;2024-01-15T16:00:44;2;2;
61592;PMS5003;70568;51.378;-1.342;2024-01-15T16:03:11;1;1;
61592;PMS5003;70568;51.378;-1.342;2024-01-15T16:05:37;2;2;
61592;PMS5003;70568;51.378;-1.342;2024-01-15T16:08:04;1;1;
61592;PMS5003;70568;51.378;-1.342;2024-01-15T16:10:31;3;3;
61592;PMS5003;70568;51.378;-1.342;2024-01-15T16:12:57;10;9;
61592;PMS5003;70568;51.378;-1.342;2024-01-15T16:15:23;5;5;
61592;PMS5003;70568;51.378;-1.342;2024-01-15T16:17:50;5;3;
61592;PMS5003;70568;51.378;-1.342;2024-01-15T16:20:18;5;3;
61592;PMS5003;70568;51.378;-1.342;2024-01-15T16:22:46;3;3;
61592;PMS5003;70568;51.378;-1.342;2024-01-15T16:25:13;2;2;
61592;PMS5003;70568;51.378;-1.342;2024-01-15T16:27:41;2;2;
61592;PMS5003;70568;51.378;-1.342;2024-01-15T16:30:08;3;3;
61592;PMS5003;70568;51.378;-1.342;2024-01-15T16:32:36;3;3;
61592;PMS5003;70568;51.378;-1.342;2024-01-15T16:35:04;7;5;